Time;durP1;ratioP1;P1;durP2;ratioP2;P2;SDS_P1;SDS_P2;PMS_P1;PMS_P2;Temp;Humidity;BMP_temperature;BMP_pressure;BME280_temperature;BME280_humidity;BME280_pressure;Samples;Min_cycle;Max_cycle;Signal;HPM_P1;HPM_P2
2023/08/07 00:00:45;;;;;;;8.57;4.47;;;15.20;99.90;;;;;;5096957;28;20063;-75
2023/08/07 00:03:11;;;;;;;7.10;4.60;;;15.20;99.90;;;;;;5114181;28;20043;-77
2023/08/07 00:05:37;;;;;;;8.93;4.57;;;15.20;99.90;;;;;;5112393;28;20043;-76
2023/08/07 00:08:02;;;;;;;9.57;4.15;;;15.20;99.90;;;;;;5114115;28;20464;-78
2023/08/07 00:10:28;;;;;;;8.25;4.68;;;15.20;99.90;;;;;;5112824;28;20397;-77
2023/08/07 00:12:54;;;;;;;7.00;4.70;;;15.10;99.90;;;;;;5112149;28;20390;-76
2023/08/07 00:15:19;;;;;;;7.60;4.57;;;15.20;99.90;;;;;;5114397;28;20047;-75
2023/08/07 00:17:45;;;;;;;7.05;4.20;;;15.20;99.90;;;;;;5112681;28;20036;-75
2023/08/07 00:20:12;;;;;;;9.15;4.38;;;15.20;99.90;;;;;;5111518;28;20035;-76
2023/08/07 00:22:38;;;;;;;10.38;4.60;;;15.10;99.90;;;;;;5095778;28;20082;-76
2023/08/07 00:25:04;;;;;;;10.60;4.57;;;15.10;99.90;;;;;;5092845;28;20075;-77
2023/08/07 00:27:30;;;;;;;9.23;4.38;;;15.00;99.90;;;;;;5112221;28;20048;-78
2023/08/07 00:29:56;;;;;;;8.50;3.90;;;15.00;99.90;;;;;;5115206;28;20039;-77
2023/08/07 00:32:22;;;;;;;10.30;4.03;;;15.00;99.90;;;;;;5113959;28;20039;-77
2023/08/07 00:34:47;;;;;;;8.27;3.67;;;15.00;99.90;;;;;;5107408;28;20115;-77
2023/08/07 00:37:13;;;;;;;7.93;3.30;;;15.00;99.90;;;;;;5113071;28;20051;-77
2023/08/07 00:39:38;;;;;;;6.50;3.72;;;15.00;99.90;;;;;;5094898;28;20044;-77
2023/08/07 00:42:05;;;;;;;9.70;3.90;;;15.00;99.90;;;;;;5095265;28;20072;-77
2023/08/07 00:44:30;;;;;;;8.75;3.85;;;15.00;99.90;;;;;;5103954;28;20475;-78
2023/08/07 00:46:56;;;;;;;7.25;3.70;;;14.90;99.90;;;;;;5113502;28;20043;-77
2023/08/07 00:49:22;;;;;;;6.20;3.55;;;14.90;99.90;;;;;;5112813;28;20050;-77
2023/08/07 00:51:48;;;;;;;8.23;3.38;;;14.90;99.90;;;;;;5116510;28;20096;-79
2023/08/07 00:54:18;;;;;;;7.32;3.08;;;14.90;99.90;;;;;;5117167;28;20409;-78
2023/08/07 00:56:43;;;;;;;9.88;3.85;;;14.90;99.90;;;;;;5113730;28;20050;-79
2023/08/07 00:59:09;;;;;;;10.68;3.13;;;14.90;99.90;;;;;;5097563;28;20071;-79
2023/08/07 01:01:36;;;;;;;5.63;2.80;;;14.90;99.90;;;;;;5098965;28;20043;-79
2023/08/07 01:04:02;;;;;;;6.45;3.00;;;14.80;99.90;;;;;;5097249;28;20044;-79
2023/08/07 01:06:27;;;;;;;5.45;3.38;;;14.80;99.90;;;;;;5099302;28;20052;-79
2023/08/07 01:08:53;;;;;;;8.20;3.40;;;14.80;99.90;;;;;;5101873;28;20059;-79
2023/08/07 01:11:31;;;;;;;8.07;3.70;;;14.80;99.90;;;;;;5099801;28;20040;-79
2023/08/07 01:14:08;;;;;;;7.07;3.15;;;14.80;99.90;;;;;;5115777;28;20099;-80
2023/08/07 01:16:56;;;;;;;8.20;3.42;;;14.70;99.90;;;;;;5102209;28;20040;-78
2023/08/07 01:19:28;;;;;;;6.53;3.28;;;14.70;99.90;;;;;;5117376;28;20044;-79
2023/08/07 01:22:09;;;;;;;5.22;3.05;;;14.60;99.90;;;;;;5120080;28;20488;-78
2023/08/07 01:24:38;;;;;;;8.75;3.05;;;14.60;99.90;;;;;;5103165;28;20107;-80
2023/08/07 01:27:19;;;;;;;4.65;3.08;;;14.60;99.90;;;;;;5123058;28;20492;-80
2023/08/07 01:30:24;;;;;;;6.38;3.20;;;14.60;99.90;;;;;;5121246;28;20044;-78
2023/08/07 01:32:59;;;;;;;6.28;3.05;;;14.60;99.90;;;;;;5112402;28;20386;-80
2023/08/07 01:35:29;;;;;;;6.80;2.80;;;14.60;99.90;;;;;;5108056;28;20075;-80
2023/08/07 01:37:59;;;;;;;10.48;3.17;;;14.60;99.90;;;;;;5106393;28;20040;-78
2023/08/07 01:40:26;;;;;;;8.93;3.38;;;14.50;99.90;;;;;;5115351;28;20036;-78
2023/08/07 01:42:52;;;;;;;8.32;3.60;;;14.50;99.90;;;;;;5120501;28;20050;-80
2023/08/07 01:45:25;;;;;;;5.07;3.20;;;14.50;99.90;;;;;;5128660;28;20111;-80
2023/08/07 01:47:52;;;;;;;10.45;3.53;;;14.40;99.90;;;;;;5128923;28;20039;-80
2023/08/07 01:50:21;;;;;;;9.07;3.83;;;14.40;99.90;;;;;;5107415;28;20058;-81
2023/08/07 01:52:47;;;;;;;8.10;3.88;;;14.40;99.90;;;;;;5104827;28;20068;-79
2023/08/07 01:55:14;;;;;;;16.50;4.57;;;14.40;99.90;;;;;;5102957;28;20486;-78
2023/08/07 01:57:43;;;;;;;8.15;3.60;;;14.30;99.90;;;;;;5104455;28;20047;-80
2023/08/07 02:00:10;;;;;;;6.63;4.10;;;14.30;99.90;;;;;;5105852;28;20043;-79
2023/08/07 02:02:38;;;;;;;11.18;4.35;;;14.30;99.90;;;;;;5118164;28;20035;-78
2023/08/07 02:05:04;;;;;;;12.93;4.45;;;14.30;99.90;;;;;;5114011;28;20044;-78
2023/08/07 02:07:30;;;;;;;8.45;3.58;;;14.30;99.90;;;;;;5085362;28;20478;-78
2023/08/07 02:09:57;;;;;;;9.95;4.38;;;14.20;99.90;;;;;;5104826;28;20040;-79
2023/08/07 02:12:24;;;;;;;14.70;4.28;;;14.30;99.90;;;;;;5104241;28;20074;-80
2023/08/07 02:14:50;;;;;;;8.60;4.43;;;14.20;99.90;;;;;;5097169;28;20042;-81
2023/08/07 02:17:15;;;;;;;9.95;4.53;;;14.20;99.90;;;;;;5123740;27;20035;-78
2023/08/07 02:19:41;;;;;;;10.05;4.03;;;14.20;99.90;;;;;;5122040;28;20044;-77
2023/08/07 02:22:07;;;;;;;8.77;4.68;;;14.20;99.90;;;;;;5104859;28;20048;-79
2023/08/07 02:24:36;;;;;;;11.75;4.40;;;14.20;99.90;;;;;;5105011;28;20055;-78
2023/08/07 02:27:02;;;;;;;11.90;4.50;;;14.20;99.90;;;;;;5101217;28;20040;-77
2023/08/07 02:29:27;;;;;;;14.45;4.30;;;14.20;99.90;;;;;;5122256;28;20457;-77
2023/08/07 02:31:53;;;;;;;12.40;4.00;;;14.10;99.90;;;;;;5116686;28;20031;-80
2023/08/07 02:34:19;;;;;;;12.48;4.20;;;14.10;99.90;;;;;;5119834;28;20143;-78
2023/08/07 02:36:44;;;;;;;12.20;4.03;;;14.10;99.90;;;;;;5118978;28;20031;-77
2023/08/07 02:39:10;;;;;;;14.68;4.90;;;14.20;99.90;;;;;;5103686;28;20125;-76
2023/08/07 02:41:35;;;;;;;12.63;4.47;;;14.20;99.90;;;;;;5098176;28;20040;-78
2023/08/07 02:44:01;;;;;;;12.68;4.28;;;14.20;99.90;;;;;;5108538;28;20047;-79
2023/08/07 02:46:27;;;;;;;11.32;3.80;;;14.20;99.90;;;;;;5119320;28;20119;-78
2023/08/07 02:48:53;;;;;;;13.52;3.88;;;14.30;99.90;;;;;;5102460;28;20048;-79
2023/08/07 02:51:19;;;;;;;11.00;3.53;;;14.30;99.90;;;;;;5123172;28;20122;-80
2023/08/07 02:53:44;;;;;;;16.25;4.60;;;14.30;99.90;;;;;;5119890;28;20064;-81
2023/08/07 02:56:10;;;;;;;11.60;3.70;;;14.30;99.90;;;;;;5106131;28;20048;-80
2023/08/07 02:58:36;;;;;;;16.15;4.10;;;14.30;99.90;;;;;;5102961;28;20530;-78
2023/08/07 03:01:08;;;;;;;16.90;4.22;;;14.30;99.90;;;;;;5106809;28;20067;-79
2023/08/07 03:03:34;;;;;;;16.33;4.10;;;14.40;99.90;;;;;;5122063;28;20046;-79
2023/08/07 03:05:59;;;;;;;18.15;4.32;;;14.40;99.90;;;;;;5123516;28;20044;-78
2023/08/07 03:08:25;;;;;;;11.48;3.90;;;14.40;99.90;;;;;;5122188;28;20142;-80
2023/08/07 03:10:56;;;;;;;8.20;3.58;;;14.40;99.90;;;;;;5110728;28;20095;-79
2023/08/07 03:13:23;;;;;;;15.68;4.43;;;14.40;99.90;;;;;;5097359;28;20051;-76
2023/08/07 03:15:50;;;;;;;12.73;4.40;;;14.40;99.90;;;;;;5117784;28;20040;-80
2023/08/07 03:18:16;;;;;;;9.30;3.30;;;14.40;99.90;;;;;;5126865;28;20043;-79
2023/08/07 03:20:43;;;;;;;10.68;3.20;;;14.40;99.90;;;;;;5129193;28;20066;-79
2023/08/07 03:23:09;;;;;;;7.40;3.20;;;14.40;99.90;;;;;;5110104;28;20221;-79
2023/08/07 03:25:35;;;;;;;11.50;3.67;;;14.40;99.90;;;;;;5118282;28;20046;-80
2023/08/07 03:28:01;;;;;;;20.00;4.40;;;14.50;99.90;;;;;;5117401;28;20131;-79
2023/08/07 03:30:26;;;;;;;8.63;3.45;;;14.50;99.90;;;;;;5097210;28;20048;-79
2023/08/07 03:32:52;;;;;;;10.25;3.33;;;14.50;99.90;;;;;;5115268;28;20032;-78
2023/08/07 03:35:18;;;;;;;10.98;3.35;;;14.50;99.90;;;;;;5127715;28;20043;-81
2023/08/07 03:37:44;;;;;;;15.05;3.30;;;14.50;99.90;;;;;;5122670;28;20481;-79
2023/08/07 03:40:10;;;;;;;15.57;4.63;;;14.60;99.90;;;;;;5123632;28;20036;-78
2023/08/07 03:42:35;;;;;;;13.88;3.75;;;14.60;99.90;;;;;;5109512;28;20044;-79
2023/08/07 03:45:01;;;;;;;9.07;2.95;;;14.60;99.90;;;;;;5100787;28;20121;-78
2023/08/07 03:47:27;;;;;;;13.55;3.30;;;14.60;99.90;;;;;;5111319;28;20094;-78
2023/08/07 03:49:52;;;;;;;11.27;3.45;;;14.60;99.90;;;;;;5119348;28;20046;-77
2023/08/07 03:52:18;;;;;;;17.50;4.10;;;14.70;99.90;;;;;;5101298;28;20478;-74
2023/08/07 03:54:44;;;;;;;7.30;2.75;;;14.70;99.90;;;;;;5096106;28;20044;-73
2023/08/07 03:57:10;;;;;;;12.57;3.50;;;14.80;99.90;;;;;;5102913;28;20094;-76
2023/08/07 03:59:36;;;;;;;14.80;3.20;;;14.80;99.90;;;;;;5118843;28;20040;-76
2023/08/07 04:02:03;;;;;;;14.15;4.10;;;14.80;99.90;;;;;;5102743;28;20059;-79
2023/08/07 04:04:28;;;;;;;18.95;4.60;;;14.80;99.90;;;;;;5120432;28;20092;-76
2023/08/07 04:06:54;;;;;;;12.52;4.30;;;14.80;99.90;;;;;;5099073;28;20052;-77
2023/08/07 04:09:19;;;;;;;13.82;5.00;;;14.80;99.90;;;;;;5098171;28;20036;-77
2023/08/07 04:11:45;;;;;;;16.95;4.72;;;14.80;99.90;;;;;;5103322;28;20043;-77
2023/08/07 04:14:11;;;;;;;26.58;4.90;;;14.70;99.90;;;;;;5111324;28;20055;-78
2023/08/07 04:16:37;;;;;;;19.35;4.85;;;14.80;99.90;;;;;;5097644;28;20036;-77
2023/08/07 04:19:03;;;;;;;21.80;5.20;;;14.70;99.90;;;;;;5101462;28;20097;-77
2023/08/07 04:21:30;;;;;;;23.08;4.65;;;14.70;99.90;;;;;;5082309;28;20060;-77
2023/08/07 04:23:56;;;;;;;21.15;5.20;;;14.70;99.90;;;;;;5108325;28;20042;-77
2023/08/07 04:26:21;;;;;;;18.40;4.97;;;14.70;99.90;;;;;;5099830;28;20076;-77
2023/08/07 04:28:47;;;;;;;23.38;4.95;;;14.80;99.90;;;;;;5097093;28;20075;-77
2023/08/07 04:31:12;;;;;;;20.98;5.80;;;14.80;99.90;;;;;;5106322;28;20442;-76
2023/08/07 04:33:38;;;;;;;17.80;4.38;;;14.70;99.90;;;;;;5097318;28;20562;-76
2023/08/07 04:36:05;;;;;;;25.73;4.75;;;14.70;99.90;;;;;;5098774;28;20056;-76
2023/08/07 04:38:30;;;;;;;14.73;4.40;;;14.70;99.90;;;;;;5116426;28;20066;-77
2023/08/07 04:40:56;;;;;;;22.58;5.20;;;14.70;99.90;;;;;;5112355;28;20397;-76
2023/08/07 04:43:22;;;;;;;18.60;3.70;;;14.70;99.90;;;;;;5104872;28;20100;-76
2023/08/07 04:45:48;;;;;;;11.80;3.20;;;14.70;99.90;;;;;;5108038;28;20032;-76
2023/08/07 04:48:14;;;;;;;16.02;4.35;;;14.70;99.90;;;;;;5123691;28;20065;-76
2023/08/07 04:50:40;;;;;;;16.67;4.07;;;14.70;99.90;;;;;;5127087;28;20088;-75
2023/08/07 04:53:06;;;;;;;20.48;4.53;;;14.60;99.90;;;;;;5130612;28;20047;-76
2023/08/07 04:55:32;;;;;;;19.10;4.07;;;14.60;99.90;;;;;;5128277;28;20051;-76
2023/08/07 04:57:58;;;;;;;13.32;4.97;;;14.50;99.90;;;;;;5127820;28;20035;-77
2023/08/07 05:00:24;;;;;;;19.80;4.60;;;14.50;99.90;;;;;;5119458;28;20082;-77
2023/08/07 05:02:51;;;;;;;21.25;4.75;;;14.50;99.90;;;;;;5123086;28;20059;-76
2023/08/07 05:05:19;;;;;;;17.23;4.47;;;14.60;99.90;;;;;;5121439;28;20482;-76
2023/08/07 05:07:44;;;;;;;21.63;4.63;;;14.60;99.90;;;;;;5114312;28;20498;-76
2023/08/07 05:10:10;;;;;;;14.82;4.28;;;14.60;99.90;;;;;;5082974;28;20050;-77
2023/08/07 05:12:36;;;;;;;11.73;4.68;;;14.70;99.90;;;;;;5113088;28;20079;-76
2023/08/07 05:15:02;;;;;;;15.73;4.07;;;14.80;99.90;;;;;;5103296;28;21454;-76
2023/08/07 05:17:27;;;;;;;21.25;4.13;;;14.80;99.90;;;;;;5108967;28;20063;-77
2023/08/07 05:19:53;;;;;;;24.52;4.20;;;14.80;99.90;;;;;;5118769;28;20036;-77
2023/08/07 05:22:19;;;;;;;21.35;5.57;;;14.90;99.90;;;;;;5111690;28;20136;-77
2023/08/07 05:24:45;;;;;;;19.80;4.68;;;14.90;99.90;;;;;;5115165;28;20481;-77
2023/08/07 05:27:11;;;;;;;24.83;5.60;;;14.90;99.90;;;;;;5110291;28;20456;-77
2023/08/07 05:29:43;;;;;;;17.27;4.72;;;15.00;99.90;;;;;;5113340;28;20051;-78
2023/08/07 05:32:13;;;;;;;23.52;4.90;;;15.00;99.90;;;;;;5117335;28;20054;-78
2023/08/07 05:34:39;;;;;;;22.95;5.55;;;15.00;99.90;;;;;;5118437;28;20032;-78
2023/08/07 05:37:05;;;;;;;23.17;5.20;;;15.10;99.90;;;;;;5115242;28;20114;-76
2023/08/07 05:39:31;;;;;;;21.55;4.63;;;15.10;99.90;;;;;;5117055;28;20412;-77
2023/08/07 05:41:57;;;;;;;15.02;4.45;;;15.20;99.90;;;;;;5117072;28;20123;-77
2023/08/07 05:44:26;;;;;;;17.88;3.75;;;15.30;99.90;;;;;;5100379;28;20120;-77
2023/08/07 05:46:52;;;;;;;17.10;4.32;;;15.40;99.90;;;;;;5097898;28;20052;-77
2023/08/07 05:49:17;;;;;;;23.13;4.22;;;15.40;99.90;;;;;;5097557;28;20036;-78
2023/08/07 05:51:43;;;;;;;18.88;3.88;;;15.40;99.90;;;;;;5096290;28;20043;-77
2023/08/07 05:54:10;;;;;;;17.73;4.25;;;15.50;99.90;;;;;;5115996;28;20047;-77
2023/08/07 05:56:38;;;;;;;19.52;4.72;;;15.50;99.90;;;;;;5119721;28;20047;-77
2023/08/07 05:59:03;;;;;;;18.05;4.90;;;15.40;99.90;;;;;;5107118;28;20115;-77
2023/08/07 06:01:31;;;;;;;16.10;4.18;;;15.30;99.90;;;;;;5107571;28;20082;-77
2023/08/07 06:03:57;;;;;;;17.70;3.50;;;15.30;99.90;;;;;;5116006;28;20055;-77
2023/08/07 06:06:25;;;;;;;16.88;3.83;;;15.30;99.90;;;;;;5104997;28;20042;-77
2023/08/07 06:08:51;;;;;;;15.38;3.83;;;15.30;99.90;;;;;;5117435;28;20039;-76
2023/08/07 06:11:17;;;;;;;20.88;3.90;;;15.30;99.90;;;;;;5113925;28;20044;-77
2023/08/07 06:13:43;;;;;;;12.65;3.63;;;15.40;99.90;;;;;;5096032;28;20442;-78
2023/08/07 06:16:09;;;;;;;15.40;3.60;;;15.40;99.90;;;;;;5104469;28;20400;-77
2023/08/07 06:18:35;;;;;;;20.35;3.35;;;15.40;99.90;;;;;;5117828;28;20065;-77
2023/08/07 06:21:01;;;;;;;13.50;3.25;;;15.40;99.90;;;;;;5121461;28;20055;-77
2023/08/07 06:23:26;;;;;;;14.05;2.70;;;15.40;99.90;;;;;;5105228;28;20056;-77
2023/08/07 06:25:52;;;;;;;13.00;3.05;;;15.40;99.90;;;;;;5114264;28;20039;-77
2023/08/07 06:28:18;;;;;;;11.20;3.10;;;15.40;99.90;;;;;;5102998;28;20035;-77
2023/08/07 06:30:43;;;;;;;14.15;3.28;;;15.30;99.90;;;;;;5120419;28;20047;-76
2023/08/07 06:33:09;;;;;;;10.23;3.30;;;15.20;99.90;;;;;;5116476;28;20511;-76
2023/08/07 06:35:38;;;;;;;16.60;3.10;;;15.20;99.90;;;;;;5097861;28;20132;-77
2023/08/07 06:38:05;;;;;;;10.23;3.67;;;15.40;99.90;;;;;;5097313;28;20048;-76
2023/08/07 06:40:31;;;;;;;11.65;3.13;;;15.60;99.90;;;;;;5096786;28;20052;-76
2023/08/07 06:42:56;;;;;;;11.85;3.67;;;15.60;99.90;;;;;;5117233;28;20193;-76
2023/08/07 06:45:22;;;;;;;10.27;3.22;;;15.60;99.90;;;;;;5097927;28;20488;-77
2023/08/07 06:47:47;;;;;;;15.07;2.72;;;15.40;99.90;;;;;;5109820;28;20039;-76
2023/08/07 06:50:14;;;;;;;14.45;3.30;;;15.30;99.90;;;;;;5116956;28;20031;-77
2023/08/07 06:52:40;;;;;;;12.68;3.33;;;15.20;99.90;;;;;;5117221;28;20131;-77
2023/08/07 06:55:06;;;;;;;11.80;2.85;;;15.20;99.90;;;;;;5107073;28;20106;-76
2023/08/07 06:57:32;;;;;;;12.55;3.28;;;15.10;99.90;;;;;;5097444;28;20486;-77
2023/08/07 06:59:58;;;;;;;16.58;4.03;;;15.10;99.90;;;;;;5095704;28;20127;-77
2023/08/07 07:02:24;;;;;;;14.35;3.40;;;15.20;99.90;;;;;;5106197;28;20044;-77
2023/08/07 07:04:49;;;;;;;11.95;3.10;;;15.20;99.90;;;;;;5114029;28;20043;-76
2023/08/07 07:07:15;;;;;;;13.10;2.97;;;15.20;99.90;;;;;;5116040;28;20537;-76
2023/08/07 07:09:41;;;;;;;16.95;3.25;;;15.20;99.90;;;;;;5117198;28;20118;-76
2023/08/07 07:12:07;;;;;;;12.40;3.20;;;15.20;99.90;;;;;;5103221;28;20036;-77
2023/08/07 07:14:33;;;;;;;13.32;3.50;;;15.10;99.90;;;;;;5114737;28;20477;-77
2023/08/07 07:17:03;;;;;;;11.43;3.53;;;15.00;99.90;;;;;;5114883;28;20047;-76
2023/08/07 07:19:28;;;;;;;14.20;3.70;;;15.00;99.90;;;;;;5114870;28;20051;-76
2023/08/07 07:21:54;;;;;;;9.48;3.42;;;15.00;99.90;;;;;;5116927;28;20048;-77
2023/08/07 07:24:20;;;;;;;16.00;3.63;;;14.90;99.90;;;;;;5114625;28;20042;-76
2023/08/07 07:26:45;;;;;;;19.65;4.00;;;14.90;99.90;;;;;;5109729;28;20044;-76
2023/08/07 07:29:11;;;;;;;16.33;3.75;;;15.00;99.90;;;;;;5114619;28;20473;-74
2023/08/07 07:31:37;;;;;;;14.43;3.35;;;15.00;99.90;;;;;;5113737;28;20044;-77
2023/08/07 07:34:02;;;;;;;14.10;2.92;;;15.10;99.90;;;;;;5111115;28;20119;-77
2023/08/07 07:36:28;;;;;;;10.25;3.58;;;15.20;99.90;;;;;;5077323;28;20072;-77
2023/08/07 07:38:54;;;;;;;20.00;3.85;;;15.30;99.90;;;;;;5095702;28;20040;-77
2023/08/07 07:41:23;;;;;;;17.58;3.20;;;15.30;99.90;;;;;;5103880;28;20084;-77
2023/08/07 07:43:49;;;;;;;14.85;3.33;;;15.40;99.90;;;;;;5114685;28;20040;-77
2023/08/07 07:46:14;;;;;;;14.27;3.53;;;15.40;99.90;;;;;;5114516;28;20062;-78
2023/08/07 07:48:40;;;;;;;15.55;3.38;;;15.50;99.90;;;;;;5111707;28;20043;-77
2023/08/07 07:51:06;;;;;;;14.73;3.55;;;15.70;99.90;;;;;;5113732;28;20036;-76
2023/08/07 07:53:31;;;;;;;20.42;4.10;;;15.80;99.90;;;;;;5095765;28;20108;-74
2023/08/07 07:55:57;;;;;;;12.80;3.30;;;15.90;99.90;;;;;;5106458;28;20039;-77
2023/08/07 07:58:23;;;;;;;13.55;3.00;;;15.90;99.90;;;;;;5095132;28;20089;-77
2023/08/07 08:00:52;;;;;;;15.60;4.05;;;15.80;99.90;;;;;;5094902;28;20048;-78
2023/08/07 08:03:17;;;;;;;7.60;2.60;;;15.60;99.90;;;;;;5107510;28;20044;-77
2023/08/07 08:05:43;;;;;;;10.75;3.03;;;15.40;99.90;;;;;;5095541;28;20036;-77
2023/08/07 08:08:09;;;;;;;12.25;3.75;;;15.30;99.90;;;;;;5095089;28;20126;-77
2023/08/07 08:10:35;;;;;;;13.98;3.70;;;15.20;99.90;;;;;;5112980;28;20050;-77
2023/08/07 08:13:03;;;;;;;12.57;3.35;;;15.10;99.90;;;;;;5114678;28;20047;-77
2023/08/07 08:15:32;;;;;;;15.63;2.83;;;15.10;99.90;;;;;;5108001;28;20076;-77
2023/08/07 08:17:57;;;;;;;19.33;3.92;;;15.10;99.90;;;;;;5110209;28;20043;-77
2023/08/07 08:20:23;;;;;;;16.50;4.13;;;15.10;99.90;;;;;;5096575;28;20039;-78
2023/08/07 08:22:49;;;;;;;16.73;3.60;;;15.00;99.90;;;;;;5101572;28;20044;-77
2023/08/07 08:25:17;;;;;;;19.30;3.30;;;15.10;99.90;;;;;;5096887;28;20043;-77
2023/08/07 08:27:44;;;;;;;;;;;15.20;99.90;;;;;;5114330;28;20521;-77
2023/08/07 08:30:10;;;;;;;15.02;3.60;;;15.30;99.90;;;;;;5115243;28;19966;-76
2023/08/07 08:32:35;;;;;;;11.23;3.33;;;15.50;99.90;;;;;;5105727;27;20104;-76
2023/08/07 08:35:01;;;;;;;17.30;3.30;;;15.50;99.90;;;;;;5097193;28;20470;-77
2023/08/07 08:37:29;;;;;;;12.43;2.97;;;15.60;99.90;;;;;;5113086;28;20047;-76
2023/08/07 08:39:54;;;;;;;13.20;3.53;;;15.60;99.90;;;;;;5096765;28;20505;-76
2023/08/07 08:42:20;;;;;;;15.43;4.65;;;15.80;99.90;;;;;;5112347;28;20039;-77
2023/08/07 08:44:53;;;;;;;13.57;2.90;;;16.00;99.90;;;;;;5094279;28;20052;-76
2023/08/07 08:47:20;;;;;;;13.07;2.65;;;16.20;99.90;;;;;;5112314;28;20058;-76
2023/08/07 08:49:54;;;;;;;9.77;2.67;;;16.30;99.90;;;;;;5114521;28;20100;-78
2023/08/07 08:52:20;;;;;;;9.65;2.75;;;16.50;99.90;;;;;;5108396;28;20052;-75
2023/08/07 08:54:47;;;;;;;12.68;2.42;;;16.60;99.90;;;;;;5094346;28;20040;-79
2023/08/07 08:57:13;;;;;;;21.33;3.72;;;16.60;99.90;;;;;;5093041;28;20079;-77
2023/08/07 08:59:41;;;;;;;11.07;3.10;;;16.70;99.90;;;;;;5100863;28;20075;-77
2023/08/07 09:02:08;;;;;;;;;;;16.80;99.90;;;;;;5111047;28;20050;-77
2023/08/07 09:04:33;;;;;;;11.70;2.60;;;16.80;99.90;;;;;;5114312;28;20445;-76
2023/08/07 09:07:00;;;;;;;9.60;3.08;;;17.00;99.90;;;;;;5095531;28;20040;-76
2023/08/07 09:09:27;;;;;;;10.52;2.72;;;17.10;99.90;;;;;;5108427;28;20079;-76
2023/08/07 09:11:54;;;;;;;12.10;2.78;;;17.20;99.90;;;;;;5093814;28;20500;-77
2023/08/07 09:14:26;;;;;;;11.38;2.47;;;17.10;99.90;;;;;;5098082;28;20055;-78
2023/08/07 09:16:52;;;;;;;15.57;3.10;;;17.20;99.90;;;;;;5114738;28;20123;-78
2023/08/07 09:19:18;;;;;;;10.57;3.17;;;17.30;99.90;;;;;;5116664;28;20046;-78
2023/08/07 09:21:43;;;;;;;13.32;2.85;;;17.40;99.90;;;;;;5116217;28;20056;-79
2023/08/07 09:24:11;;;;;;;17.05;3.42;;;17.40;99.90;;;;;;5110694;28;20048;-78
2023/08/07 09:26:41;;;;;;;8.90;2.58;;;17.30;99.90;;;;;;5115195;28;20044;-78
2023/08/07 09:29:09;;;;;;;10.63;2.95;;;17.20;99.90;;;;;;5116562;28;20042;-77
2023/08/07 09:31:37;;;;;;;10.48;2.72;;;17.30;99.90;;;;;;5114463;28;20082;-79
2023/08/07 09:34:03;;;;;;;10.15;2.70;;;17.40;99.90;;;;;;5095510;28;20036;-78
2023/08/07 09:36:33;;;;;;;14.73;3.17;;;17.30;99.90;;;;;;5115961;28;20047;-79
2023/08/07 09:39:02;;;;;;;12.18;2.88;;;17.30;99.90;;;;;;5100342;28;20048;-79
2023/08/07 09:41:29;;;;;;;9.50;2.58;;;17.30;99.90;;;;;;5118109;28;20044;-78
2023/08/07 09:43:56;;;;;;;14.48;3.38;;;17.40;99.90;;;;;;5116153;28;20076;-78
2023/08/07 09:46:22;;;;;;;11.07;2.80;;;17.50;99.90;;;;;;5104164;28;20080;-78
2023/08/07 09:48:47;;;;;;;8.35;2.65;;;17.40;99.90;;;;;;5095880;28;20042;-78
2023/08/07 09:51:13;;;;;;;13.18;2.83;;;17.40;99.90;;;;;;5114496;28;20040;-78
2023/08/07 09:53:39;;;;;;;14.35;2.63;;;17.60;99.90;;;;;;5097188;28;20048;-78
2023/08/07 09:56:06;;;;;;;9.68;2.65;;;17.70;99.90;;;;;;5114638;28;20045;-78
2023/08/07 09:58:32;;;;;;;11.32;3.60;;;17.70;99.90;;;;;;5121014;28;20065;-78
2023/08/07 10:01:04;;;;;;;10.35;2.80;;;17.50;99.90;;;;;;5110020;28;20048;-78
2023/08/07 10:03:31;;;;;;;12.98;2.75;;;17.30;99.90;;;;;;5093656;28;20093;-78
2023/08/07 10:05:57;;;;;;;12.40;2.83;;;17.20;99.90;;;;;;5102279;28;20036;-79
2023/08/07 10:08:24;;;;;;;13.27;2.80;;;17.00;99.90;;;;;;5120894;28;20043;-78
2023/08/07 10:10:50;;;;;;;13.65;2.78;;;16.80;99.90;;;;;;5102176;28;20096;-78
2023/08/07 10:13:15;;;;;;;11.98;3.50;;;16.80;99.90;;;;;;5116069;28;20123;-79
2023/08/07 10:15:42;;;;;;;5.63;2.70;;;16.80;99.90;;;;;;5101840;28;20040;-79
2023/08/07 10:18:11;;;;;;;10.02;3.17;;;16.80;99.90;;;;;;5120556;27;20505;-78
2023/08/07 10:20:38;;;;;;;13.27;3.40;;;16.80;99.90;;;;;;5110677;28;20448;-78
2023/08/07 10:23:08;;;;;;;12.68;2.60;;;17.00;99.90;;;;;;5101706;28;20051;-79
2023/08/07 10:25:39;;;;;;;9.30;2.55;;;17.00;99.90;;;;;;5069283;28;20040;-79
2023/08/07 10:28:07;;;;;;;21.50;3.55;;;17.10;99.90;;;;;;5109921;28;20352;-77
2023/08/07 10:30:34;;;;;;;17.60;2.88;;;17.20;99.90;;;;;;5121664;28;20036;-78
2023/08/07 10:33:02;;;;;;;15.05;3.10;;;17.20;99.90;;;;;;5112242;28;20122;-77
2023/08/07 10:35:32;;;;;;;10.30;2.75;;;17.30;99.90;;;;;;5120713;28;20119;-79
2023/08/07 10:38:10;;;;;;;9.30;2.78;;;17.30;99.90;;;;;;5112327;28;20119;-78
2023/08/07 10:41:02;;;;;;;7.00;2.00;;;17.30;99.90;;;;;;5100538;28;20089;-77
2023/08/07 10:43:29;;;;;;;14.75;3.33;;;17.30;99.90;;;;;;5102250;28;20051;-78
2023/08/07 10:46:13;;;;;;;12.50;3.25;;;17.40;99.90;;;;;;5101426;28;20040;-78
2023/08/07 10:48:41;;;;;;;8.68;2.25;;;17.30;99.90;;;;;;5120317;28;20043;-78
2023/08/07 10:51:07;;;;;;;4.15;1.90;;;17.40;99.90;;;;;;5116985;28;20041;-79
2023/08/07 10:53:42;;;;;;;8.73;2.13;;;17.50;99.90;;;;;;5102090;28;20059;-80
2023/08/07 10:56:10;;;;;;;6.65;2.00;;;17.50;99.70;;;;;;5102265;28;20525;-80
2023/08/07 10:58:38;;;;;;;10.15;2.08;;;17.50;99.20;;;;;;5106656;28;20038;-78
2023/08/07 11:01:19;;;;;;;7.15;2.53;;;17.80;99.80;;;;;;5123271;28;20047;-79
2023/08/07 11:03:49;;;;;;;4.60;1.60;;;18.00;99.50;;;;;;5109357;28;20190;-80
2023/08/07 11:06:16;;;;;;;9.85;2.08;;;18.20;98.20;;;;;;5127179;28;20099;-79
2023/08/07 11:08:42;;;;;;;8.87;2.07;;;18.20;98.60;;;;;;5112220;28;20066;-78
2023/08/07 11:11:08;;;;;;;10.98;2.33;;;18.30;99.30;;;;;;5114575;28;20039;-78
2023/08/07 11:13:34;;;;;;;8.70;2.58;;;18.30;99.70;;;;;;5096010;28;20048;-77
2023/08/07 11:16:02;;;;;;;10.38;3.17;;;18.20;99.70;;;;;;5100660;28;20048;-77
2023/08/07 11:18:28;;;;;;;;;;;18.00;99.90;;;;;;5105926;28;20461;-77
2023/08/07 11:20:56;;;;;;;15.70;2.38;;;17.90;99.90;;;;;;5119405;28;19919;-80
2023/08/07 11:23:25;;;;;;;9.65;2.38;;;17.70;99.90;;;;;;5121562;28;20545;-79
2023/08/07 11:25:55;;;;;;;7.32;2.65;;;17.50;99.90;;;;;;5119085;28;20080;-79
2023/08/07 11:28:22;;;;;;;13.85;3.22;;;17.30;99.90;;;;;;5101052;28;20509;-78
2023/08/07 11:30:50;;;;;;;13.55;2.67;;;16.90;99.90;;;;;;5103806;28;20456;-79
2023/08/07 11:33:19;;;;;;;10.10;2.50;;;16.70;99.90;;;;;;5104940;28;20040;-80
2023/08/07 11:35:45;;;;;;;10.35;2.95;;;16.50;99.90;;;;;;5108733;28;20031;-79
2023/08/07 11:38:11;;;;;;;9.55;2.60;;;16.40;99.90;;;;;;5103067;28;20054;-80
2023/08/07 11:40:37;;;;;;;6.93;3.10;;;16.40;99.90;;;;;;5122293;28;20048;-79
2023/08/07 11:43:03;;;;;;;7.30;2.42;;;16.40;99.90;;;;;;5107089;28;20044;-81
2023/08/07 11:45:29;;;;;;;9.70;3.38;;;16.50;99.90;;;;;;5108963;28;20040;-79
2023/08/07 11:47:56;;;;;;;9.82;2.47;;;16.50;99.90;;;;;;5122894;28;20070;-80
2023/08/07 11:50:27;;;;;;;8.70;2.20;;;16.60;99.90;;;;;;5120195;28;20707;-79
2023/08/07 11:52:53;;;;;;;6.53;1.75;;;16.60;99.90;;;;;;5120733;28;20039;-79
2023/08/07 11:55:19;;;;;;;5.07;1.60;;;16.60;99.90;;;;;;5122074;28;20044;-79
2023/08/07 11:57:48;;;;;;;4.72;1.77;;;16.70;99.90;;;;;;5105098;28;20039;-79
2023/08/07 12:00:14;;;;;;;5.60;1.80;;;16.80;99.90;;;;;;5121167;28;20043;-80
2023/08/07 12:02:44;;;;;;;7.40;2.05;;;16.80;99.90;;;;;;5104193;28;20044;-79
2023/08/07 12:05:11;;;;;;;10.18;2.30;;;16.90;99.90;;;;;;5103147;28;20044;-80
2023/08/07 12:07:37;;;;;;;7.03;2.13;;;17.10;99.90;;;;;;5100930;28;20114;-79
2023/08/07 12:10:12;;;;;;;7.22;2.28;;;17.10;99.90;;;;;;5116806;28;20044;-78
2023/08/07 12:12:38;;;;;;;7.95;2.70;;;17.00;99.90;;;;;;5123148;28;20481;-80
2023/08/07 12:15:07;;;;;;;6.05;2.22;;;17.00;99.90;;;;;;5126585;28;20036;-79
2023/08/07 12:17:33;;;;;;;8.38;2.13;;;17.00;99.90;;;;;;5119622;28;20051;-79
2023/08/07 12:19:59;;;;;;;9.75;2.92;;;16.90;99.90;;;;;;5107499;28;20043;-78
2023/08/07 12:22:30;;;;;;;7.45;1.88;;;17.00;99.90;;;;;;5116437;28;20498;-79
2023/08/07 12:24:56;;;;;;;6.70;2.17;;;16.90;99.90;;;;;;5100940;28;20020;-79
2023/08/07 12:27:22;;;;;;;5.72;1.85;;;17.00;99.90;;;;;;5100079;28;20055;-78
2023/08/07 12:29:47;;;;;;;5.75;1.90;;;17.00;99.90;;;;;;5098265;28;20046;-79
2023/08/07 12:32:13;;;;;;;8.40;2.67;;;17.10;99.90;;;;;;5118817;28;20042;-79
2023/08/07 12:34:38;;;;;;;8.70;2.65;;;17.20;99.90;;;;;;5117655;28;20465;-77
2023/08/07 12:37:05;;;;;;;8.55;2.72;;;17.50;99.90;;;;;;5115426;28;20035;-78
2023/08/07 12:39:30;;;;;;;12.10;3.22;;;17.80;99.90;;;;;;5116586;28;20079;-78